Time;durP1;ratioP1;P1;durP2;ratioP2;P2;SDS_P1;SDS_P2;PMS_P1;PMS_P2;Temp;Humidity;BMP_temperature;BMP_pressure;BME280_temperature;BME280_humidity;BME280_pressure;Samples;Min_cycle;Max_cycle;Signal;HPM_P1;HPM_P2
2021/12/27 00:01:20;;;;;;;10.60;5.87;;;-3.10;94.00;;;;;;5061947;28;20219;-77
2021/12/27 00:03:49;;;;;;;11.33;5.57;;;-3.10;93.90;;;;;;5064015;28;20216;-77
2021/12/27 00:06:17;;;;;;;9.60;6.03;;;-3.10;94.00;;;;;;5061279;28;20244;-79
2021/12/27 00:08:44;;;;;;;12.37;6.43;;;-3.10;94.20;;;;;;5062668;28;20374;-79
2021/12/27 00:11:14;;;;;;;11.40;5.70;;;-3.10;94.00;;;;;;5060494;28;20259;-80
2021/12/27 00:13:42;;;;;;;13.13;6.27;;;-3.10;94.10;;;;;;5061160;28;20282;-79
2021/12/27 00:16:10;;;;;;;12.67;6.57;;;-3.10;94.10;;;;;;5063509;28;20227;-78
2021/12/27 00:18:37;;;;;;;14.57;6.40;;;-3.10;94.00;;;;;;5068375;28;20782;-79
2021/12/27 00:21:04;;;;;;;13.47;6.37;;;-3.10;93.90;;;;;;5064605;28;22513;-78
2021/12/27 00:23:31;;;;;;;15.00;6.53;;;-3.10;93.90;;;;;;5068442;28;20215;-80
2021/12/27 00:25:57;;;;;;;12.67;6.90;;;-3.10;93.90;;;;;;5061777;28;20220;-79
2021/12/27 00:28:24;;;;;;;12.73;7.03;;;-3.10;93.90;;;;;;5065333;28;20216;-78
2021/12/27 00:30:52;;;;;;;13.90;6.57;;;-3.10;94.00;;;;;;5060358;28;20227;-79
2021/12/27 00:33:19;;;;;;;15.10;6.67;;;-3.10;94.00;;;;;;5068003;28;20219;-78
2021/12/27 00:35:46;;;;;;;14.77;7.10;;;-3.10;94.20;;;;;;5070010;28;20287;-79
2021/12/27 00:38:13;;;;;;;12.50;6.93;;;-3.10;94.30;;;;;;5068894;28;20309;-78
2021/12/27 00:40:39;;;;;;;11.50;6.03;;;-3.10;94.40;;;;;;5062461;28;20213;-79
2021/12/27 00:43:06;;;;;;;12.83;6.80;;;-3.10;94.40;;;;;;5063524;28;20238;-79
2021/12/27 00:45:33;;;;;;;13.73;6.90;;;-3.10;94.30;;;;;;5059318;28;20227;-79
2021/12/27 00:48:01;;;;;;;11.23;6.43;;;-3.10;94.20;;;;;;5067527;28;20746;-79
2021/12/27 00:50:29;;;;;;;13.10;6.83;;;-3.10;94.20;;;;;;5070119;28;20230;-79
2021/12/27 00:52:55;;;;;;;15.77;7.70;;;-3.10;94.30;;;;;;5067509;28;20218;-79
2021/12/27 00:55:23;;;;;;;17.27;8.00;;;-3.10;94.40;;;;;;5065573;28;20913;-79
2021/12/27 00:57:53;;;;;;;13.50;7.30;;;-3.10;94.30;;;;;;5068943;28;20307;-79
2021/12/27 01:00:22;;;;;;;13.93;7.30;;;-3.10;94.40;;;;;;5065746;28;20219;-79
2021/12/27 01:02:49;;;;;;;12.87;7.10;;;-3.10;94.50;;;;;;5077710;28;20218;-79
2021/12/27 01:05:17;;;;;;;14.63;7.10;;;-3.10;94.70;;;;;;5060521;28;20299;-79
2021/12/27 01:07:44;;;;;;;17.20;7.70;;;-3.10;94.90;;;;;;5064411;28;20216;-78
2021/12/27 01:10:31;;;;;;;15.33;8.07;;;-3.00;95.00;;;;;;5057917;28;20228;-79
2021/12/27 01:13:06;;;;;;;15.30;7.40;;;-3.00;95.20;;;;;;5059598;28;20242;-79
2021/12/27 01:15:46;;;;;;;13.00;7.30;;;-2.90;95.20;;;;;;5068571;28;20215;-78
2021/12/27 01:18:14;;;;;;;15.73;7.60;;;-2.80;95.20;;;;;;5065031;28;20216;-78
2021/12/27 01:20:42;;;;;;;16.03;8.30;;;-2.70;95.00;;;;;;5068007;28;20298;-78
2021/12/27 01:23:09;;;;;;;12.40;6.47;;;-2.70;94.90;;;;;;5060543;28;20227;-78
2021/12/27 01:25:36;;;;;;;15.60;8.17;;;-2.60;94.90;;;;;;5064222;28;20329;-78
2021/12/27 01:28:03;;;;;;;14.00;8.07;;;-2.60;95.20;;;;;;5058701;28;20220;-78
2021/12/27 01:30:36;;;;;;;16.23;8.07;;;-2.50;94.90;;;;;;5060342;28;20220;-78
2021/12/27 01:33:04;;;;;;;17.47;8.23;;;-2.50;94.90;;;;;;5060788;28;20689;-78
2021/12/27 01:35:31;;;;;;;16.87;8.43;;;-2.40;94.80;;;;;;5065304;28;20215;-79
2021/12/27 01:37:59;;;;;;;14.43;8.07;;;-2.40;94.90;;;;;;5059260;28;20220;-79
2021/12/27 01:40:28;;;;;;;18.07;9.00;;;-2.30;95.00;;;;;;5065965;28;21062;-78
2021/12/27 01:43:07;;;;;;;16.80;8.20;;;-2.30;95.00;;;;;;5056517;28;20816;-79
2021/12/27 01:45:36;;;;;;;19.43;8.67;;;-2.20;94.90;;;;;;5063706;28;20272;-79
2021/12/27 01:48:05;;;;;;;15.33;8.57;;;-2.10;94.80;;;;;;5069182;28;20212;-80
2021/12/27 01:50:32;;;;;;;16.60;7.93;;;-2.10;94.90;;;;;;5055211;28;20342;-79
2021/12/27 01:53:00;;;;;;;15.70;8.37;;;-2.00;95.00;;;;;;5062478;28;20246;-80
2021/12/27 01:55:27;;;;;;;14.67;7.93;;;-2.00;94.60;;;;;;5053041;28;20692;-79
2021/12/27 01:57:53;;;;;;;20.10;8.93;;;-1.90;94.60;;;;;;5065973;28;20212;-79
2021/12/27 02:00:20;;;;;;;18.20;8.80;;;-1.90;94.70;;;;;;5059043;28;20213;-79
2021/12/27 02:02:47;;;;;;;16.70;8.10;;;-1.80;94.90;;;;;;5066107;28;20220;-79
2021/12/27 02:05:15;;;;;;;16.97;9.20;;;-1.80;95.00;;;;;;5056153;28;20225;-78
2021/12/27 02:07:42;;;;;;;16.27;8.33;;;-1.70;95.00;;;;;;5067795;28;20289;-78
2021/12/27 02:10:12;;;;;;;20.47;9.43;;;-1.70;95.00;;;;;;5068382;28;20217;-78
2021/12/27 02:12:39;;;;;;;17.83;8.40;;;-1.60;94.80;;;;;;5053349;28;20704;-78
2021/12/27 02:15:09;;;;;;;17.60;8.93;;;-1.60;94.90;;;;;;5066764;28;20249;-79
2021/12/27 02:17:38;;;;;;;20.30;8.83;;;-1.50;94.70;;;;;;5080446;28;20822;-78
2021/12/27 02:20:09;;;;;;;18.77;9.20;;;-1.50;94.70;;;;;;5060830;28;20223;-78
2021/12/27 02:22:40;;;;;;;17.57;9.17;;;-1.50;94.50;;;;;;5064740;28;20243;-78
2021/12/27 02:25:08;;;;;;;18.70;9.00;;;-1.40;94.70;;;;;;5064610;28;20290;-78
2021/12/27 02:27:36;;;;;;;19.73;9.63;;;-1.40;94.80;;;;;;5065470;28;20233;-79
2021/12/27 02:30:05;;;;;;;17.83;9.83;;;-1.40;94.60;;;;;;5063102;28;20251;-79
2021/12/27 02:32:32;;;;;;;18.20;9.20;;;-1.40;94.60;;;;;;5062904;28;20768;-79
2021/12/27 02:34:59;;;;;;;15.97;8.90;;;-1.40;94.70;;;;;;5067231;28;20641;-78
2021/12/27 02:37:27;;;;;;;20.30;9.53;;;-1.40;94.60;;;;;;5062131;28;20227;-79
2021/12/27 02:39:54;;;;;;;21.67;10.03;;;-1.40;94.40;;;;;;5061860;28;20309;-79
2021/12/27 02:42:21;;;;;;;20.37;9.50;;;-1.40;94.30;;;;;;5062571;28;20216;-79
2021/12/27 02:44:47;;;;;;;18.13;9.13;;;-1.40;94.30;;;;;;5059202;28;20218;-78
2021/12/27 02:47:16;;;;;;;16.60;9.30;;;-1.40;94.20;;;;;;5066637;28;20239;-78
2021/12/27 02:49:43;;;;;;;21.73;9.73;;;-1.50;94.50;;;;;;5060615;28;20221;-79
2021/12/27 02:52:10;;;;;;;17.53;9.20;;;-1.50;94.50;;;;;;5063739;28;20221;-79
2021/12/27 02:54:42;;;;;;;19.80;9.77;;;-1.50;94.40;;;;;;5060937;28;20228;-78
2021/12/27 02:57:10;;;;;;;20.17;9.77;;;-1.50;94.30;;;;;;5068235;28;20304;-78
2021/12/27 02:59:37;;;;;;;19.47;10.17;;;-1.50;94.30;;;;;;5057091;28;20227;-78
2021/12/27 03:02:04;;;;;;;19.00;9.47;;;-1.50;94.40;;;;;;5064753;28;20237;-79
2021/12/27 03:04:35;;;;;;;17.37;9.40;;;-1.60;94.40;;;;;;5061834;28;20726;-78
2021/12/27 03:07:03;;;;;;;18.53;9.30;;;-1.50;94.50;;;;;;5065369;28;20225;-79
2021/12/27 03:09:30;;;;;;;19.07;9.40;;;-1.60;94.50;;;;;;5066011;28;20244;-79
2021/12/27 03:11:58;;;;;;;18.90;9.47;;;-1.50;94.70;;;;;;5062285;28;20290;-79
2021/12/27 03:14:25;;;;;;;19.10;9.23;;;-1.60;94.70;;;;;;5057165;28;20218;-78
2021/12/27 03:16:51;;;;;;;19.37;10.17;;;-1.60;94.50;;;;;;5062618;28;20700;-78
2021/12/27 03:19:18;;;;;;;21.27;9.60;;;-1.60;94.60;;;;;;5066965;28;20328;-79
2021/12/27 03:21:45;;;;;;;20.47;9.60;;;-1.50;94.80;;;;;;5062159;28;20209;-79
2021/12/27 03:24:11;;;;;;;17.77;10.03;;;-1.60;94.60;;;;;;5055303;28;20223;-78
2021/12/27 03:26:38;;;;;;;19.07;9.33;;;-1.50;94.70;;;;;;5065903;28;20830;-79
2021/12/27 03:29:06;;;;;;;19.20;9.60;;;-1.50;94.70;;;;;;5062320;28;20228;-79
2021/12/27 03:31:36;;;;;;;17.10;9.40;;;-1.50;95.20;;;;;;5066925;28;20235;-78
2021/12/27 03:34:03;;;;;;;22.83;10.30;;;-1.50;95.00;;;;;;5059646;28;20221;-78
2021/12/27 03:36:36;;;;;;;19.27;9.83;;;-1.40;95.00;;;;;;5056317;28;20229;-78
2021/12/27 03:39:06;;;;;;;21.93;10.33;;;-1.40;94.90;;;;;;5065839;28;20224;-78
2021/12/27 03:41:33;;;;;;;20.90;10.10;;;-1.40;95.00;;;;;;5066590;28;20220;-79
2021/12/27 03:44:00;;;;;;;20.20;10.30;;;-1.30;95.30;;;;;;5065566;28;20329;-78
2021/12/27 03:46:28;;;;;;;20.33;10.53;;;-1.30;95.20;;;;;;5064822;28;20752;-79
2021/12/27 03:48:55;;;;;;;22.37;10.53;;;-1.30;95.20;;;;;;5065591;28;20623;-79
2021/12/27 03:51:22;;;;;;;19.30;10.83;;;-1.20;95.40;;;;;;5066986;28;20220;-79
2021/12/27 03:53:49;;;;;;;20.43;10.23;;;-1.20;95.30;;;;;;5060413;28;20217;-78
2021/12/27 03:56:16;;;;;;;20.43;10.03;;;-1.10;95.40;;;;;;5066959;28;20238;-79
2021/12/27 03:58:53;;;;;;;23.83;11.27;;;-1.10;95.20;;;;;;5061537;28;20228;-79
2021/12/27 04:01:21;;;;;;;21.43;10.40;;;-1.10;95.00;;;;;;5063095;28;20925;-79
2021/12/27 04:03:51;;;;;;;20.60;10.30;;;-1.10;94.70;;;;;;5061718;28;20902;-78
2021/12/27 04:06:19;;;;;;;18.73;10.47;;;-1.10;94.40;;;;;;5064617;28;20220;-78
2021/12/27 04:08:46;;;;;;;20.97;10.30;;;-1.00;94.50;;;;;;5059083;28;20720;-78
2021/12/27 04:11:14;;;;;;;22.77;11.23;;;-1.00;94.70;;;;;;5066878;28;20534;-79
2021/12/27 04:13:41;;;;;;;22.30;10.50;;;-1.00;94.80;;;;;;5063036;28;20219;-78
2021/12/27 04:16:07;;;;;;;23.93;11.10;;;-1.00;94.90;;;;;;5065153;28;20219;-79
2021/12/27 04:18:34;;;;;;;21.50;11.00;;;-1.00;94.90;;;;;;5062497;28;20314;-79
2021/12/27 04:21:02;;;;;;;23.33;10.63;;;-0.90;95.00;;;;;;5065406;28;20219;-79
2021/12/27 04:23:29;;;;;;;23.17;10.30;;;-0.90;94.80;;;;;;5064654;28;20218;-79
2021/12/27 04:25:56;;;;;;;22.50;10.90;;;-0.90;94.90;;;;;;5058797;28;20225;-79
2021/12/27 04:28:24;;;;;;;19.73;10.87;;;-0.90;95.20;;;;;;5060364;28;20228;-79
2021/12/27 04:30:51;;;;;;;22.27;11.03;;;-0.80;95.40;;;;;;5066334;28;20307;-79
2021/12/27 04:33:17;;;;;;;20.43;10.87;;;-0.80;95.40;;;;;;5061370;28;20635;-79
2021/12/27 04:35:44;;;;;;;22.17;10.67;;;-0.80;95.30;;;;;;5064806;28;20213;-79
2021/12/27 04:38:12;;;;;;;23.53;11.63;;;-0.70;95.30;;;;;;5056487;28;20218;-79
2021/12/27 04:40:43;;;;;;;23.67;11.50;;;-0.70;95.30;;;;;;5062158;28;20213;-79
2021/12/27 04:43:12;;;;;;;22.10;11.13;;;-0.70;95.30;;;;;;5063964;28;20232;-78
2021/12/27 04:45:40;;;;;;;21.97;11.10;;;-0.70;95.20;;;;;;5065220;28;20221;-79
2021/12/27 04:48:07;;;;;;;18.83;10.83;;;-0.60;95.40;;;;;;5061252;28;20214;-79
2021/12/27 04:50:34;;;;;;;21.80;10.63;;;-0.60;95.30;;;;;;5063602;28;20230;-79
2021/12/27 04:53:01;;;;;;;23.27;11.80;;;-0.60;95.30;;;;;;5059091;28;20228;-79
2021/12/27 04:55:30;;;;;;;22.13;10.77;;;-0.60;95.10;;;;;;5064840;28;20238;-79
2021/12/27 04:57:58;;;;;;;23.63;11.10;;;-0.60;95.00;;;;;;5064966;28;20726;-79
2021/12/27 05:00:25;;;;;;;18.50;10.20;;;-0.50;95.00;;;;;;5068037;28;20666;-79
2021/12/27 05:02:51;;;;;;;20.70;11.13;;;-0.50;95.10;;;;;;5061687;28;20713;-80
2021/12/27 05:05:18;;;;;;;22.53;11.77;;;-0.50;95.30;;;;;;5065029;28;20297;-79
2021/12/27 05:07:46;;;;;;;21.63;11.57;;;-0.50;95.30;;;;;;5064531;28;20225;-79
2021/12/27 05:10:13;;;;;;;24.00;11.20;;;-0.40;95.40;;;;;;5069444;28;20222;-79
2021/12/27 05:12:41;;;;;;;23.67;11.70;;;-0.40;95.50;;;;;;5064651;28;21120;-82
2021/12/27 05:15:08;;;;;;;22.23;11.27;;;-0.40;95.40;;;;;;5064894;28;20215;-82
2021/12/27 05:17:35;;;;;;;64.63;15.17;;;-0.40;95.50;;;;;;5061675;28;20228;-82
2021/12/27 05:20:04;;;;;;;25.43;12.03;;;-0.40;95.10;;;;;;5065932;28;20690;-82
2021/12/27 05:22:31;;;;;;;22.17;11.37;;;-0.40;95.30;;;;;;5065717;28;20224;-82
2021/12/27 05:24:58;;;;;;;24.03;11.73;;;-0.40;95.10;;;;;;5067831;28;20238;-82
2021/12/27 05:27:25;;;;;;;26.13;11.93;;;-0.40;95.40;;;;;;5066291;28;20667;-80
2021/12/27 05:29:53;;;;;;;22.63;11.43;;;-0.40;95.60;;;;;;5069075;28;20235;-81
2021/12/27 05:32:19;;;;;;;23.00;11.70;;;-0.40;95.40;;;;;;5064200;28;20296;-81
2021/12/27 05:34:46;;;;;;;24.43;11.97;;;-0.50;95.30;;;;;;5067825;28;20703;-82
2021/12/27 05:37:13;;;;;;;23.20;12.20;;;-0.50;95.10;;;;;;5065815;28;20228;-82
2021/12/27 05:39:40;;;;;;;23.57;11.47;;;-0.50;95.20;;;;;;5064483;28;20228;-81
2021/12/27 05:42:08;;;;;;;24.50;11.57;;;-0.60;95.40;;;;;;5063675;28;20616;-81
2021/12/27 05:44:35;;;;;;;23.33;11.93;;;-0.60;95.50;;;;;;5063052;28;20562;-81
2021/12/27 05:47:03;;;;;;;28.37;11.47;;;-0.60;95.50;;;;;;5067175;28;20248;-82
2021/12/27 05:49:30;;;;;;;23.33;12.07;;;-0.60;95.70;;;;;;5067440;28;20233;-82
2021/12/27 05:51:57;;;;;;;25.37;12.23;;;-0.60;95.70;;;;;;5063039;28;20672;-81
2021/12/27 05:54:24;;;;;;;23.63;11.60;;;-0.60;95.80;;;;;;5067725;28;20267;-82
2021/12/27 05:56:51;;;;;;;22.70;11.50;;;-0.50;95.60;;;;;;5064306;28;20222;-80
2021/12/27 05:59:18;;;;;;;22.60;11.63;;;-0.50;95.90;;;;;;5068307;28;20213;-82
2021/12/27 06:01:46;;;;;;;20.90;11.53;;;-0.50;96.20;;;;;;5067402;28;20241;-82
2021/12/27 06:04:14;;;;;;;22.60;12.00;;;-0.50;96.20;;;;;;5067082;28;20225;-82
2021/12/27 06:06:41;;;;;;;22.10;12.10;;;-0.50;95.80;;;;;;5065209;28;20621;-85
2021/12/27 06:09:08;;;;;;;22.77;12.37;;;-0.40;95.90;;;;;;5067755;28;20244;-83
2021/12/27 06:11:34;;;;;;;23.07;12.30;;;-0.40;96.00;;;;;;5069195;28;20692;-82
2021/12/27 06:14:01;;;;;;;25.07;12.00;;;-0.40;96.20;;;;;;5067520;28;20250;-83
2021/12/27 06:16:28;;;;;;;24.93;12.93;;;-0.40;96.00;;;;;;5064429;28;20213;-83
2021/12/27 06:18:56;;;;;;;26.30;12.97;;;-0.40;96.00;;;;;;5067755;28;20865;-83
2021/12/27 06:21:24;;;;;;;22.10;12.70;;;-0.50;96.40;;;;;;5070136;28;20219;-82
2021/12/27 06:23:50;;;;;;;23.50;11.90;;;-0.50;96.50;;;;;;5064477;28;20621;-83
2021/12/27 06:26:17;;;;;;;26.03;13.20;;;-0.50;96.40;;;;;;5070650;28;20332;-82
2021/12/27 06:28:44;;;;;;;26.00;12.27;;;-0.50;96.40;;;;;;5069079;28;20220;-82
2021/12/27 06:31:11;;;;;;;25.10;12.63;;;-0.50;96.60;;;;;;5066709;28;20240;-82
2021/12/27 06:33:38;;;;;;;22.60;12.73;;;-0.50;96.60;;;;;;5066218;28;20222;-83
2021/12/27 06:36:05;;;;;;;26.90;12.77;;;-0.50;96.60;;;;;;5068799;28;20218;-82
2021/12/27 06:38:33;;;;;;;30.50;13.97;;;-0.50;96.60;;;;;;5066719;28;20225;-84
2021/12/27 06:41:01;;;;;;;24.60;12.80;;;-0.50;96.80;;;;;;5062261;28;20750;-83
2021/12/27 06:43:27;;;;;;;24.37;12.97;;;-0.50;96.80;;;;;;5070751;28;20221;-83
2021/12/27 06:45:54;;;;;;;29.37;13.63;;;-0.50;96.80;;;;;;5068708;28;20715;-83
2021/12/27 06:48:21;;;;;;;23.90;13.57;;;-0.40;96.90;;;;;;5067700;28;20229;-82
2021/12/27 06:50:48;;;;;;;26.33;12.90;;;-0.40;97.00;;;;;;5066152;28;20222;-82
2021/12/27 06:53:15;;;;;;;28.40;13.87;;;-0.40;97.10;;;;;;5065080;28;20222;-83
2021/12/27 06:55:44;;;;;;;27.13;13.57;;;-0.30;97.20;;;;;;5063031;28;20619;-83
2021/12/27 06:58:10;;;;;;;25.97;13.47;;;-0.30;97.10;;;;;;5067708;28;20704;-82
2021/12/27 07:00:37;;;;;;;25.67;12.73;;;-0.30;96.90;;;;;;5062284;28;20231;-81
2021/12/27 07:03:04;;;;;;;30.33;13.73;;;-0.30;96.80;;;;;;5054122;28;20225;-82
2021/12/27 07:05:30;;;;;;;25.13;13.73;;;-0.30;96.90;;;;;;5063837;28;20234;-83
2021/12/27 07:07:57;;;;;;;31.73;14.27;;;-0.30;97.00;;;;;;5063922;28;20639;-82
2021/12/27 07:10:24;;;;;;;25.00;13.90;;;-0.30;97.00;;;;;;5064619;28;20240;-82
2021/12/27 07:12:53;;;;;;;27.27;13.90;;;-0.30;97.00;;;;;;5062918;28;20237;-84
2021/12/27 07:15:20;;;;;;;23.73;13.07;;;-0.30;97.10;;;;;;5065939;28;20698;-82
2021/12/27 07:17:47;;;;;;;26.87;13.70;;;-0.30;97.20;;;;;;5063082;28;20989;-80
2021/12/27 07:20:13;;;;;;;22.37;12.93;;;-0.30;97.30;;;;;;5054859;28;20233;-80
2021/12/27 07:22:40;;;;;;;29.33;14.50;;;-0.30;97.20;;;;;;5065536;28;20226;-80
2021/12/27 07:25:08;;;;;;;24.37;13.77;;;-0.40;97.20;;;;;;5059984;28;20585;-80
2021/12/27 07:27:35;;;;;;;27.63;14.70;;;-0.40;97.50;;;;;;5062588;28;20222;-80
2021/12/27 07:30:05;;;;;;;27.17;13.70;;;-0.40;97.50;;;;;;5063406;28;20214;-79
2021/12/27 07:32:32;;;;;;;30.40;13.93;;;-0.40;97.40;;;;;;5065000;28;20227;-80
2021/12/27 07:34:58;;;;;;;28.83;14.60;;;-0.50;97.30;;;;;;5066372;28;20218;-80
2021/12/27 07:37:25;;;;;;;28.87;14.73;;;-0.50;97.40;;;;;;5061336;28;20304;-80
2021/12/27 07:39:52;;;;;;;30.37;15.07;;;-0.50;97.50;;;;;;5065184;28;20239;-80
2021/12/27 07:42:19;;;;;;;27.67;14.70;;;-0.60;97.50;;;;;;5065799;28;20865;-79
2021/12/27 07:44:45;;;;;;;25.07;14.33;;;-0.60;97.60;;;;;;5059915;28;20216;-80
2021/12/27 07:47:13;;;;;;;28.57;14.73;;;-0.60;97.70;;;;;;5065776;28;20221;-80
2021/12/27 07:49:40;;;;;;;29.33;14.80;;;-0.60;97.80;;;;;;5062441;28;20218;-81
2021/12/27 07:52:09;;;;;;;26.23;15.00;;;-0.60;97.80;;;;;;5063085;28;20221;-79
2021/12/27 07:54:36;;;;;;;29.57;15.43;;;-0.60;97.80;;;;;;5061102;28;20232;-80
2021/12/27 07:57:03;;;;;;;28.23;14.50;;;-0.60;97.90;;;;;;5061007;28;20228;-80
2021/12/27 07:59:30;;;;;;;27.97;14.23;;;-0.50;98.00;;;;;;5064745;28;20226;-80
2021/12/27 08:01:57;;;;;;;28.40;15.20;;;-0.50;97.90;;;;;;5064267;28;20329;-80
2021/12/27 08:04:25;;;;;;;30.60;15.13;;;-0.50;97.90;;;;;;5058707;28;20574;-80
2021/12/27 08:06:53;;;;;;;29.17;14.47;;;-0.40;97.80;;;;;;5059637;28;20678;-81
2021/12/27 08:09:19;;;;;;;30.60;15.03;;;-0.40;97.80;;;;;;5063407;28;20206;-80
2021/12/27 08:11:46;;;;;;;24.20;14.00;;;-0.40;97.70;;;;;;5064306;28;20225;-80
2021/12/27 08:14:13;;;;;;;30.13;15.00;;;-0.40;97.60;;;;;;5064642;28;20660;-81
2021/12/27 08:16:40;;;;;;;30.10;15.87;;;-0.40;97.60;;;;;;5060635;28;20223;-80
2021/12/27 08:19:06;;;;;;;28.67;15.33;;;-0.30;97.70;;;;;;5065629;28;20225;-80
2021/12/27 08:21:36;;;;;;;33.97;14.63;;;-0.40;97.80;;;;;;5065223;28;20887;-80
2021/12/27 08:24:04;;;;;;;26.47;15.40;;;-0.30;97.80;;;;;;5059727;28;20234;-80
2021/12/27 08:26:30;;;;;;;29.23;14.37;;;-0.30;97.90;;;;;;5059559;28;20889;-81
2021/12/27 08:28:58;;;;;;;28.97;15.83;;;-0.30;97.90;;;;;;5062683;28;20230;-80
2021/12/27 08:31:24;;;;;;;29.77;15.03;;;-0.20;98.00;;;;;;5061425;28;20230;-79
2021/12/27 08:33:51;;;;;;;30.97;15.30;;;-0.20;98.10;;;;;;5062150;28;20225;-80
2021/12/27 08:36:19;;;;;;;31.40;15.57;;;-0.20;98.00;;;;;;5059064;28;20223;-80
2021/12/27 08:38:49;;;;;;;32.53;15.97;;;-0.10;98.10;;;;;;5060738;28;20222;-81
2021/12/27 08:41:16;;;;;;;32.50;17.90;;;0.00;98.10;;;;;;5069697;28;20221;-81
2021/12/27 08:43:44;;;;;;;29.77;15.53;;;0.00;98.00;;;;;;5062463;28;20247;-80
2021/12/27 08:46:10;;;;;;;28.17;15.43;;;0.10;98.00;;;;;;5067492;28;20225;-81
2021/12/27 08:48:38;;;;;;;26.00;15.13;;;0.10;98.00;;;;;;5063538;28;20822;-80
2021/12/27 08:51:05;;;;;;;29.27;15.80;;;0.20;98.20;;;;;;5069999;28;20912;-81
2021/12/27 08:53:32;;;;;;;31.83;15.63;;;0.20;98.20;;;;;;5064582;28;20220;-80
2021/12/27 08:56:00;;;;;;;33.93;17.37;;;0.30;98.20;;;;;;5066735;28;20219;-79
2021/12/27 08:58:29;;;;;;;34.83;15.80;;;0.30;98.10;;;;;;5056422;28;20239;-79
2021/12/27 09:00:57;;;;;;;30.07;15.77;;;0.40;98.10;;;;;;5059723;28;20560;-79
2021/12/27 09:03:23;;;;;;;31.90;15.87;;;0.50;98.20;;;;;;5065488;28;20225;-80
2021/12/27 09:05:50;;;;;;;28.67;15.17;;;0.50;98.30;;;;;;5068863;28;20241;-80
2021/12/27 09:08:17;;;;;;;31.17;15.70;;;0.60;98.40;;;;;;5072331;28;20218;-79
2021/12/27 09:10:44;;;;;;;31.03;16.17;;;0.60;98.20;;;;;;5073611;28;20309;-79
2021/12/27 09:13:13;;;;;;;30.07;15.20;;;0.60;98.20;;;;;;5064830;28;20231;-79
2021/12/27 09:15:40;;;;;;;33.20;16.37;;;0.70;98.20;;;;;;5074867;28;20220;-79
2021/12/27 09:18:06;;;;;;;29.97;15.97;;;0.70;98.20;;;;;;5061044;28;20243;-80
2021/12/27 09:20:33;;;;;;;29.10;15.30;;;0.70;98.10;;;;;;5068217;28;20216;-79
2021/12/27 09:23:00;;;;;;;30.70;15.57;;;0.80;98.10;;;;;;5064794;28;20207;-79
2021/12/27 09:25:27;;;;;;;30.47;16.73;;;0.80;98.20;;;;;;5064632;28;20294;-81
2021/12/27 09:27:53;;;;;;;32.37;16.60;;;0.90;98.30;;;;;;5069663;28;20241;-80
2021/12/27 09:30:21;;;;;;;28.07;16.27;;;0.90;98.10;;;;;;5066650;28;20212;-79
2021/12/27 09:32:50;;;;;;;30.70;16.40;;;1.00;98.20;;;;;;5064600;28;20219;-80
2021/12/27 09:35:17;;;;;;;34.20;16.33;;;1.00;98.00;;;;;;5059615;28;20225;-79
2021/12/27 09:37:44;;;;;;;30.03;16.73;;;1.00;98.00;;;;;;5067275;28;20223;-80
2021/12/27 09:40:11;;;;;;;30.63;16.73;;;1.10;98.10;;;;;;5061901;28;20277;-79
2021/12/27 09:42:39;;;;;;;31.87;16.27;;;1.10;98.20;;;;;;5067438;28;20248;-79
2021/12/27 09:45:08;;;;;;;33.90;16.97;;;1.10;98.10;;;;;;5065959;28;20225;-80
2021/12/27 09:47:37;;;;;;;30.33;17.17;;;1.10;98.20;;;;;;5064109;28;20302;-80
2021/12/27 09:50:05;;;;;;;30.30;17.20;;;1.10;98.10;;;;;;5061124;28;20215;-79
2021/12/27 09:52:32;;;;;;;35.10;18.70;;;1.10;98.10;;;;;;5061905;28;20880;-79
2021/12/27 09:55:03;;;;;;;31.63;17.23;;;1.20;98.10;;;;;;5063802;28;20248;-79
2021/12/27 09:57:30;;;;;;;32.43;17.27;;;1.20;98.30;;;;;;5066134;28;20266;-80
2021/12/27 09:59:57;;;;;;;31.43;18.27;;;1.20;98.20;;;;;;5063958;28;20220;-80
2021/12/27 10:02:25;;;;;;;33.40;18.27;;;1.30;98.20;;;;;;5065225;28;20329;-80
2021/12/27 10:04:54;;;;;;;35.47;18.83;;;1.30;98.40;;;;;;5055586;28;20224;-80
2021/12/27 10:07:21;;;;;;;30.83;16.60;;;1.40;98.20;;;;;;5065803;28;20229;-79
2021/12/27 10:09:53;;;;;;;31.57;18.03;;;1.40;98.20;;;;;;5062824;28;20218;-79
2021/12/27 10:12:22;;;;;;;35.97;17.50;;;1.40;98.20;;;;;;5066759;28;20715;-80
2021/12/27 10:14:54;;;;;;;34.93;18.60;;;1.40;98.20;;;;;;5058061;28;20278;-79
2021/12/27 10:17:23;;;;;;;35.63;18.20;;;1.50;98.30;;;;;;5060361;28;20217;-79
2021/12/27 10:19:50;;;;;;;34.47;17.77;;;1.50;98.20;;;;;;5061368;28;20312;-79
2021/12/27 10:22:18;;;;;;;31.93;18.37;;;1.50;98.40;;;;;;5062982;28;20295;-79
2021/12/27 10:24:45;;;;;;;36.07;19.13;;;1.50;98.40;;;;;;5066456;28;20223;-79
2021/12/27 10:27:12;;;;;;;35.33;17.70;;;1.60;98.60;;;;;;5068112;28;20243;-79
2021/12/27 10:29:41;;;;;;;37.00;19.50;;;1.60;98.30;;;;;;5060549;28;20220;-80
2021/12/27 10:32:10;;;;;;;34.77;19.60;;;1.60;98.20;;;;;;5059527;28;20321;-80
2021/12/27 10:34:39;;;;;;;31.57;17.80;;;1.60;98.20;;;;;;5062686;28;20801;-79
2021/12/27 10:37:25;;;;;;;34.27;19.53;;;1.60;98.20;;;;;;5063755;28;20227;-79
2021/12/27 10:39:55;;;;;;;38.97;19.80;;;1.50;98.30;;;;;;5065933;28;20331;-79
2021/12/27 10:42:26;;;;;;;34.53;19.60;;;1.50;98.40;;;;;;5063131;28;20220;-79
2021/12/27 10:44:55;;;;;;;33.73;18.70;;;1.50;98.40;;;;;;5064755;28;20244;-80
2021/12/27 10:47:35;;;;;;;34.27;19.33;;;1.50;98.60;;;;;;5055790;28;20234;-79
2021/12/27 10:50:08;;;;;;;34.63;18.80;;;1.60;98.90;;;;;;5064681;28;20235;-79
2021/12/27 10:52:57;;;;;;;34.07;18.83;;;1.60;99.00;;;;;;5064040;28;20209;-81
2021/12/27 10:55:28;;;;;;;34.23;19.67;;;1.70;99.00;;;;;;5062925;28;20418;-80
2021/12/27 10:58:10;;;;;;;36.57;20.50;;;1.70;98.90;;;;;;5066560;28;20235;-80
2021/12/27 11:00:37;;;;;;;37.70;20.57;;;1.70;98.70;;;;;;5063660;28;20578;-79
2021/12/27 11:03:04;;;;;;;35.97;19.97;;;1.80;98.70;;;;;;5064087;28;20221;-80
2021/12/27 11:05:33;;;;;;;39.00;20.40;;;1.80;98.80;;;;;;5060031;28;21138;-80
2021/12/27 11:08:05;;;;;;;39.53;21.10;;;1.80;98.90;;;;;;5065946;28;20221;-79
2021/12/27 11:10:34;;;;;;;36.53;20.57;;;1.80;98.80;;;;;;5059895;28;20284;-79
2021/12/27 11:13:02;;;;;;;32.80;19.37;;;1.80;98.90;;;;;;5063838;28;20213;-79
2021/12/27 11:15:30;;;;;;;37.67;20.37;;;1.90;98.90;;;;;;5058840;28;20227;-79
2021/12/27 11:17:57;;;;;;;43.10;20.50;;;1.90;98.70;;;;;;5064953;28;20954;-80
2021/12/27 11:20:25;;;;;;;42.13;21.50;;;1.90;98.90;;;;;;5065425;28;20227;-79
2021/12/27 11:22:54;;;;;;;37.07;20.73;;;1.90;98.90;;;;;;5065313;28;20295;-81
2021/12/27 11:25:30;;;;;;;39.33;21.80;;;1.90;98.70;;;;;;5064375;28;20231;-80
2021/12/27 11:27:58;;;;;;;36.20;21.13;;;1.90;98.90;;;;;;5054978;28;20216;-80
2021/12/27 11:30:28;;;;;;;37.50;20.97;;;1.90;98.90;;;;;;5060915;28;20216;-80
2021/12/27 11:33:12;;;;;;;37.63;19.83;;;2.00;98.90;;;;;;5062080;28;20208;-79
2021/12/27 11:36:09;;;;;;;36.17;20.07;;;2.00;98.90;;;;;;5055570;28;20222;-79
2021/12/27 11:38:42;;;;;;;36.20;20.47;;;2.00;98.80;;;;;;5054760;28;20228;-79
2021/12/27 11:41:29;;;;;;;35.03;21.00;;;2.00;98.70;;;;;;5062034;28;20220;-79
2021/12/27 11:43:57;;;;;;;36.80;20.87;;;2.00;99.00;;;;;;5061058;28;20223;-80
2021/12/27 11:46:26;;;;;;;37.57;21.23;;;2.00;98.90;;;;;;5063030;28;20607;-79
2021/12/27 11:48:55;;;;;;;38.37;21.20;;;2.10;99.00;;;;;;5064787;28;20238;-79
2021/12/27 11:51:31;;;;;;;38.60;20.83;;;2.00;99.00;;;;;;5065429;28;20216;-79
2021/12/27 11:53:59;;;;;;;39.33;21.37;;;2.00;98.80;;;;;;5060786;28;20979;-79
2021/12/27 11:56:46;;;;;;;41.03;22.73;;;2.00;98.90;;;;;;5058285;28;20715;-79
2021/12/27 11:59:39;;;;;;;34.80;20.43;;;2.00;99.10;;;;;;5058898;28;20215;-79
2021/12/27 12:02:24;;;;;;;39.80;21.70;;;2.10;99.10;;;;;;5062128;28;20536;-79
2021/12/27 12:04:53;;;;;;;40.57;20.80;;;2.10;99.00;;;;;;5051937;28;20797;-80
2021/12/27 12:07:48;;;;;;;36.87;21.07;;;2.10;99.00;;;;;;5056941;28;20235;-81
2021/12/27 12:10:16;;;;;;;39.30;22.17;;;2.10;98.90;;;;;;5055345;28;20214;-80
2021/12/27 12:13:21;;;;;;;38.67;21.43;;;2.10;98.90;;;;;;5054998;28;20874;-80
2021/12/27 12:16:08;;;;;;;37.70;20.93;;;2.00;99.00;;;;;;5064215;28;20302;-79
2021/12/27 12:18:39;;;;;;;35.53;20.60;;;2.00;99.10;;;;;;5061149;28;20289;-79
2021/12/27 12:21:06;;;;;;;37.30;20.73;;;2.00;99.00;;;;;;5055507;28;20601;-79
2021/12/27 12:23:37;;;;;;;38.17;21.27;;;2.10;99.30;;;;;;5061925;28;20522;-79
2021/12/27 12:26:07;;;;;;;40.13;22.10;;;2.10;99.10;;;;;;5059875;28;20592;-80
2021/12/27 12:28:35;;;;;;;38.30;21.77;;;2.10;99.30;;;;;;5063873;28;20220;-81
2021/12/27 12:31:02;;;;;;;38.23;21.80;;;2.10;99.30;;;;;;5062888;28;20337;-80
2021/12/27 12:33:31;;;;;;;42.80;22.43;;;2.10;99.30;;;;;;5063671;28;20295;-79
2021/12/27 12:36:00;;;;;;;39.03;21.53;;;2.20;99.50;;;;;;5065967;28;20834;-80
2021/12/27 12:38:29;;;;;;;42.43;22.67;;;2.20;99.70;;;;;;5059943;28;20230;-79
2021/12/27 12:41:02;;;;;;;39.13;21.93;;;2.20;99.60;;;;;;5063372;28;20231;-80